createdAt,value
2022-11-10T00:00:41.269Z,17.83
2022-11-10T00:03:11.115Z,17.67
2022-11-10T00:05:40.594Z,18.20
2022-11-10T00:08:11.313Z,17.63
2022-11-10T00:10:55.110Z,20.80
2022-11-10T00:13:25.201Z,14.67
2022-11-10T00:16:11.287Z,17.97
2022-11-10T00:18:39.392Z,18.30
2022-11-10T00:21:09.301Z,20.03
2022-11-10T00:23:38.386Z,19.10
2022-11-10T00:26:12.967Z,21.13
2022-11-10T00:28:43.074Z,19.00
2022-11-10T00:31:11.897Z,23.90
2022-11-10T00:33:45.551Z,20.47
2022-11-10T00:36:13.682Z,25.17
2022-11-10T00:38:41.925Z,21.43
2022-11-10T00:41:09.988Z,16.90
2022-11-10T00:43:38.292Z,18.17
2022-11-10T00:46:08.141Z,15.70
2022-11-10T00:48:36.685Z,19.23
2022-11-10T00:51:04.853Z,17.07
2022-11-10T00:53:33.412Z,22.90
2022-11-10T00:56:01.583Z,18.97
2022-11-10T00:58:30.059Z,21.83
2022-11-10T01:01:02.451Z,20.77
2022-11-10T01:03:32.578Z,19.70
2022-11-10T01:06:05.829Z,13.50
2022-11-10T01:08:34.032Z,17.57
2022-11-10T01:11:05.858Z,24.83
2022-11-10T01:13:34.858Z,22.90
2022-11-10T01:16:05.672Z,17.00
2022-11-10T01:18:35.888Z,13.70
2022-11-10T01:21:04.893Z,11.33
2022-11-10T01:23:33.298Z,12.40
2022-11-10T01:26:03.113Z,15.13
2022-11-10T01:28:32.772Z,11.50
2022-11-10T01:31:01.278Z,14.43
2022-11-10T01:33:30.348Z,10.10
2022-11-10T01:36:00.204Z,13.50
2022-11-10T01:38:29.350Z,9.87
2022-11-10T01:40:58.267Z,7.90
2022-11-10T01:43:27.034Z,14.40
2022-11-10T01:45:55.696Z,14.23
2022-11-10T01:48:31.740Z,15.20
2022-11-10T01:51:03.856Z,12.87
2022-11-10T01:53:36.304Z,11.23
2022-11-10T01:56:05.546Z,9.53
2022-11-10T01:58:40.342Z,13.03
2022-11-10T02:01:08.956Z,13.93
2022-11-10T02:03:42.932Z,15.13
2022-11-10T02:06:12.702Z,9.97
2022-11-10T02:08:42.457Z,11.53
2022-11-10T02:11:11.010Z,13.63
2022-11-10T02:13:39.477Z,14.97
2022-11-10T02:16:08.399Z,13.20
2022-11-10T02:18:36.756Z,16.37
2022-11-10T02:21:06.960Z,13.83
2022-11-10T02:23:53.983Z,13.73
2022-11-10T02:26:25.702Z,12.33
2022-11-10T02:28:53.900Z,10.80
2022-11-10T02:31:22.110Z,11.43
2022-11-10T02:33:50.273Z,15.90
2022-11-10T02:36:19.813Z,15.13
2022-11-10T02:38:47.998Z,15.00
2022-11-10T02:41:16.143Z,15.53
2022-11-10T02:43:44.865Z,12.90
2022-11-10T02:46:13.140Z,17.00
2022-11-10T02:48:41.261Z,18.30
2022-11-10T02:51:09.808Z,12.40
2022-11-10T02:53:39.341Z,20.10
2022-11-10T02:56:08.077Z,16.90
2022-11-10T02:58:36.661Z,17.33
2022-11-10T03:01:07.365Z,14.33
2022-11-10T03:03:35.859Z,22.03
2022-11-10T03:06:04.279Z,17.17
2022-11-10T03:08:32.463Z,17.27
2022-11-10T03:11:02.138Z,16.47
2022-11-10T03:13:45.420Z,14.67
2022-11-10T03:16:19.432Z,17.53
2022-11-10T03:18:47.487Z,13.40
2022-11-10T03:21:15.643Z,18.23
2022-11-10T03:23:44.185Z,13.13
2022-11-10T03:26:14.448Z,13.70
2022-11-10T03:28:42.500Z,14.50
2022-11-10T03:31:10.648Z,14.47
2022-11-10T03:33:38.993Z,15.87
2022-11-10T03:36:07.578Z,18.63
2022-11-10T03:38:35.855Z,19.20
2022-11-10T03:41:18.772Z,17.07
2022-11-10T03:43:49.339Z,20.67
2022-11-10T03:46:18.027Z,17.70
2022-11-10T03:48:51.830Z,14.37
2022-11-10T03:51:21.567Z,27.37
2022-11-10T03:53:49.794Z,15.93
2022-11-10T03:56:17.985Z,20.80
2022-11-10T03:58:46.254Z,20.73
2022-11-10T04:01:15.759Z,18.23
2022-11-10T04:03:48.789Z,18.83
2022-11-10T04:06:35.936Z,22.80
2022-11-10T04:09:04.443Z,17.80
2022-11-10T04:11:50.934Z,18.97
2022-11-10T04:14:36.927Z,15.07
2022-11-10T04:17:07.024Z,16.73
2022-11-10T04:19:35.390Z,16.90
2022-11-10T04:22:03.499Z,16.67
2022-11-10T04:24:31.976Z,21.13
2022-11-10T04:27:00.015Z,14.57
2022-11-10T04:29:28.120Z,17.27
2022-11-10T04:31:56.479Z,16.17
2022-11-10T04:34:26.463Z,21.33
2022-11-10T04:36:54.579Z,16.97
2022-11-10T04:39:22.993Z,16.30
2022-11-10T04:41:50.980Z,16.90
2022-11-10T04:44:19.202Z,17.13
2022-11-10T04:46:47.420Z,20.30
2022-11-10T04:49:15.527Z,16.87
2022-11-10T04:51:45.029Z,20.40
2022-11-10T04:54:13.564Z,11.57
2022-11-10T04:56:41.583Z,14.60
2022-11-10T04:59:09.670Z,21.43
2022-11-10T05:01:38.112Z,20.60
2022-11-10T05:04:06.905Z,19.97
2022-11-10T05:06:35.066Z,16.93
2022-11-10T05:09:05.180Z,19.07
2022-11-10T05:11:33.387Z,21.77
2022-11-10T05:14:01.594Z,15.93
2022-11-10T05:16:29.848Z,24.73
2022-11-10T05:18:58.424Z,19.77
2022-11-10T05:21:26.567Z,23.83
2022-11-10T05:23:54.855Z,20.77
2022-11-10T05:26:24.372Z,16.90
2022-11-10T05:28:52.441Z,18.97
2022-11-10T05:31:20.685Z,17.87
2022-11-10T05:33:48.848Z,23.87
2022-11-10T05:36:16.918Z,19.30
2022-11-10T05:38:45.243Z,21.53
2022-11-10T05:41:13.443Z,22.37
2022-11-10T05:43:42.849Z,19.27
2022-11-10T05:46:11.176Z,21.53
2022-11-10T05:48:39.268Z,17.70
2022-11-10T05:51:08.403Z,18.10
2022-11-10T05:53:37.218Z,14.53
2022-11-10T05:56:05.757Z,23.03
2022-11-10T05:58:34.384Z,13.17
2022-11-10T06:01:04.135Z,21.43
2022-11-10T06:03:32.298Z,21.90
2022-11-10T06:06:00.788Z,24.60
2022-11-10T06:08:29.093Z,19.03
2022-11-10T06:10:57.249Z,13.37
2022-11-10T06:13:25.647Z,17.57
2022-11-10T06:15:54.104Z,22.40
2022-11-10T06:18:23.619Z,17.63
2022-11-10T06:20:51.701Z,26.33
2022-11-10T06:23:20.280Z,20.63
2022-11-10T06:25:48.536Z,19.40
2022-11-10T06:28:17.364Z,16.20
2022-11-10T06:30:45.625Z,18.40
2022-11-10T06:33:13.850Z,25.13
2022-11-10T06:35:43.329Z,18.53
2022-11-10T06:38:12.862Z,15.53
2022-11-10T06:40:41.075Z,18.67
2022-11-10T06:43:09.313Z,21.70
2022-11-10T06:45:40.897Z,18.57
2022-11-10T06:48:12.422Z,20.17
2022-11-10T06:50:40.822Z,25.83
2022-11-10T06:53:11.146Z,14.93
2022-11-10T06:55:39.505Z,16.43
2022-11-10T06:58:08.147Z,18.70
2022-11-10T07:00:37.127Z,17.97
2022-11-10T07:03:08.269Z,20.43
2022-11-10T07:05:38.210Z,24.80
2022-11-10T07:08:13.730Z,21.50
2022-11-10T07:10:42.092Z,13.13
2022-11-10T07:13:11.636Z,26.07
2022-11-10T07:15:39.703Z,19.13
2022-11-10T07:18:08.428Z,25.37
2022-11-10T07:20:37.091Z,20.17
2022-11-10T07:23:07.177Z,24.00
2022-11-10T07:25:38.393Z,22.03
2022-11-10T07:28:10.541Z,22.67
2022-11-10T07:30:41.536Z,21.73
2022-11-10T07:33:12.946Z,21.40
2022-11-10T07:35:41.190Z,24.50
2022-11-10T07:38:10.780Z,22.53
2022-11-10T07:40:40.301Z,19.80
2022-11-10T07:43:08.778Z,20.07
2022-11-10T07:45:37.093Z,26.37
2022-11-10T07:48:07.382Z,22.13
2022-11-10T07:50:35.873Z,14.97
2022-11-10T07:53:06.096Z,30.20
2022-11-10T07:55:35.191Z,23.50
2022-11-10T07:58:04.952Z,24.07
2022-11-10T08:00:33.665Z,24.83
2022-11-10T08:03:06.353Z,27.43
2022-11-10T08:05:35.724Z,25.53
2022-11-10T08:08:04.746Z,23.47
2022-11-10T08:10:34.196Z,23.33
2022-11-10T08:13:07.804Z,25.60
2022-11-10T08:15:37.188Z,22.87
2022-11-10T08:18:07.472Z,19.67
2022-11-10T08:20:36.594Z,20.10
2022-11-10T08:23:07.863Z,19.50
2022-11-10T08:25:38.048Z,19.57
2022-11-10T08:28:10.189Z,17.33
2022-11-10T08:30:40.413Z,21.33
2022-11-10T08:33:10.737Z,22.73
2022-11-10T08:35:40.664Z,22.53
2022-11-10T08:38:10.393Z,20.07
2022-11-10T08:40:38.663Z,23.10
2022-11-10T08:43:10.000Z,14.63
2022-11-10T08:45:39.645Z,15.97
2022-11-10T08:48:09.576Z,24.37
2022-11-10T08:50:38.398Z,19.20
2022-11-10T08:53:09.157Z,20.27
2022-11-10T08:55:37.492Z,19.80
2022-11-10T08:58:07.947Z,16.63
2022-11-10T09:00:38.019Z,20.17
2022-11-10T09:03:09.353Z,21.50
2022-11-10T09:05:38.414Z,18.47
2022-11-10T09:08:07.080Z,11.43
2022-11-10T09:10:38.246Z,20.40
2022-11-10T09:13:07.301Z,16.73
2022-11-10T09:15:37.412Z,17.97
2022-11-10T09:18:07.841Z,19.00
2022-11-10T09:20:37.710Z,19.20
2022-11-10T09:23:06.858Z,18.83
2022-11-10T09:25:37.972Z,13.87
2022-11-10T09:28:08.908Z,14.43
2022-11-10T09:30:41.402Z,16.43
2022-11-10T09:33:10.216Z,21.93
2022-11-10T09:35:38.381Z,21.50
2022-11-10T09:38:06.600Z,20.80
2022-11-10T09:40:48.426Z,21.57
2022-11-10T09:43:21.820Z,25.87
2022-11-10T09:45:55.615Z,13.83
2022-11-10T09:48:27.430Z,18.67
2022-11-10T09:51:00.104Z,14.33
2022-11-10T09:53:34.025Z,21.03
2022-11-10T09:56:04.888Z,18.83
2022-11-10T09:58:38.819Z,24.33
2022-11-10T10:01:24.206Z,18.80
2022-11-10T10:04:04.452Z,19.93
2022-11-10T10:07:04.893Z,14.60
2022-11-10T10:09:40.979Z,19.90
2022-11-10T10:12:23.470Z,18.80
2022-11-10T10:15:13.276Z,16.73
2022-11-10T10:17:54.442Z,19.30
2022-11-10T10:20:33.079Z,12.97
2022-11-10T10:23:17.220Z,16.97
2022-11-10T10:25:47.193Z,14.13
2022-11-10T10:28:22.212Z,19.97
2022-11-10T10:30:50.525Z,13.57
2022-11-10T10:33:22.049Z,14.43
2022-11-10T10:35:52.139Z,16.90
2022-11-10T10:38:26.273Z,13.60
2022-11-10T10:40:58.838Z,19.87
2022-11-10T10:43:27.235Z,15.47
2022-11-10T10:46:07.319Z,17.60
2022-11-10T10:48:36.956Z,17.13
2022-11-10T10:51:05.727Z,19.70
2022-11-10T10:53:34.235Z,15.17
2022-11-10T10:56:06.835Z,16.90
2022-11-10T10:58:51.127Z,24.00
2022-11-10T11:01:27.117Z,17.97
2022-11-10T11:03:56.819Z,21.17
2022-11-10T11:06:27.721Z,19.17
2022-11-10T11:09:01.699Z,13.03
2022-11-10T11:11:32.623Z,18.73
2022-11-10T11:14:20.116Z,15.13
2022-11-10T11:16:50.316Z,16.77
2022-11-10T11:19:22.928Z,17.50
2022-11-10T11:22:26.727Z,14.00
2022-11-10T11:24:59.592Z,17.87
2022-11-10T11:27:36.280Z,17.53
2022-11-10T11:30:12.319Z,18.80
2022-11-10T11:33:13.760Z,25.53
2022-11-10T11:35:50.980Z,15.13
2022-11-10T11:38:33.378Z,15.90
2022-11-10T11:41:17.350Z,15.30
2022-11-10T11:44:13.099Z,19.27
2022-11-10T11:46:49.379Z,19.20
2022-11-10T11:49:51.240Z,19.80
2022-11-10T11:52:29.731Z,16.70
2022-11-10T11:55:17.696Z,22.07
2022-11-10T11:57:57.655Z,12.90
2022-11-10T12:00:25.918Z,19.47
2022-11-10T12:03:11.623Z,15.77
2022-11-10T12:05:54.756Z,18.50
2022-11-10T12:08:38.890Z,16.27
2022-11-10T12:11:15.542Z,19.53
2022-11-10T12:13:56.445Z,23.47
2022-11-10T12:16:28.733Z,15.33
2022-11-10T12:19:06.089Z,15.67
2022-11-10T12:21:44.082Z,19.63
2022-11-10T12:24:35.659Z,18.37
2022-11-10T12:27:14.081Z,25.00
2022-11-10T12:29:46.337Z,21.10
2022-11-10T12:32:21.849Z,15.93
2022-11-10T12:34:55.580Z,15.47
2022-11-10T12:37:30.366Z,18.10
2022-11-10T12:40:06.781Z,18.20
2022-11-10T12:42:38.595Z,19.60
2022-11-10T12:45:09.117Z,21.50
2022-11-10T12:47:44.168Z,17.33
2022-11-10T12:50:29.336Z,22.87
2022-11-10T12:53:02.976Z,13.27
2022-11-10T12:55:40.742Z,17.20
2022-11-10T12:58:13.257Z,15.60
2022-11-10T13:00:44.738Z,18.17
2022-11-10T13:03:25.701Z,21.07
2022-11-10T13:05:58.506Z,32.63
2022-11-10T13:08:33.235Z,21.37
2022-11-10T13:11:07.455Z,19.57
2022-11-10T13:13:45.945Z,17.57
2022-11-10T13:16:49.724Z,18.63
2022-11-10T13:19:52.125Z,19.90
2022-11-10T13:22:37.536Z,16.60
2022-11-10T13:25:43.616Z,21.60
2022-11-10T13:28:13.469Z,17.23
2022-11-10T13:30:45.729Z,17.03
2022-11-10T13:33:38.615Z,23.83
2022-11-10T13:36:09.171Z,17.20
2022-11-10T13:38:40.244Z,9.13
2022-11-10T13:41:21.191Z,12.73
2022-11-10T13:43:53.458Z,14.43
2022-11-10T13:46:32.456Z,14.57
2022-11-10T13:49:28.365Z,15.80
2022-11-10T13:52:07.217Z,12.53
2022-11-10T13:55:00.973Z,18.70
2022-11-10T13:57:32.977Z,14.20
2022-11-10T14:00:09.215Z,15.60
2022-11-10T14:02:52.529Z,7.63
2022-11-10T14:06:05.760Z,9.60
2022-11-10T14:08:42.391Z,10.87
2022-11-10T14:11:22.458Z,12.43
2022-11-10T14:13:57.800Z,8.90
2022-11-10T14:16:31.866Z,6.47
2022-11-10T14:19:05.887Z,8.87
2022-11-10T14:21:40.337Z,7.83
2022-11-10T14:24:23.726Z,8.33
2022-11-10T14:26:55.563Z,9.53
2022-11-10T14:29:31.723Z,6.07
2022-11-10T14:32:05.406Z,10.00
2022-11-10T14:34:43.646Z,11.07
2022-11-10T14:37:24.719Z,8.07
2022-11-10T14:39:56.285Z,5.97
2022-11-10T14:42:26.614Z,9.60
2022-11-10T14:45:07.917Z,6.67
2022-11-10T14:47:38.009Z,8.27
2022-11-10T14:50:20.511Z,11.50
2022-11-10T14:52:52.261Z,11.07
2022-11-10T14:55:24.832Z,7.97
2022-11-10T14:57:56.199Z,9.73
2022-11-10T15:00:26.875Z,7.57
2022-11-10T15:02:59.731Z,13.73
2022-11-10T15:05:31.159Z,9.97
2022-11-10T15:07:59.902Z,10.73
2022-11-10T15:10:43.701Z,15.37
2022-11-10T15:13:21.367Z,13.10
2022-11-10T15:15:49.843Z,14.57
2022-11-10T15:18:28.229Z,17.87
2022-11-10T15:21:02.854Z,12.47
2022-11-10T15:23:34.094Z,15.33
2022-11-10T15:26:02.849Z,14.97
2022-11-10T15:28:33.314Z,20.03
2022-11-10T15:31:05.556Z,17.67
2022-11-10T15:33:37.410Z,19.23
2022-11-10T15:36:17.055Z,18.30
2022-11-10T15:38:45.566Z,16.53
2022-11-10T15:41:16.722Z,11.63
2022-11-10T15:43:44.803Z,12.47
2022-11-10T15:46:18.382Z,14.57
2022-11-10T15:48:50.258Z,15.40
2022-11-10T15:51:25.823Z,16.23
2022-11-10T15:53:54.966Z,20.27
2022-11-10T15:56:25.019Z,20.57
2022-11-10T15:59:00.709Z,20.83
2022-11-10T16:01:31.721Z,16.63
2022-11-10T16:04:01.435Z,14.77
2022-11-10T16:06:30.675Z,16.80
2022-11-10T16:08:59.199Z,16.67
2022-11-10T16:11:31.586Z,14.03
2022-11-10T16:14:00.018Z,14.23
2022-11-10T16:16:28.463Z,15.97
2022-11-10T16:18:56.502Z,11.87
2022-11-10T16:21:27.197Z,11.83
2022-11-10T16:23:55.318Z,12.93
2022-11-10T16:26:27.010Z,14.40
2022-11-10T16:28:55.243Z,11.20
2022-11-10T16:31:24.048Z,9.90
2022-11-10T16:33:52.320Z,13.53
2022-11-10T16:36:27.880Z,19.77
2022-11-10T16:38:56.741Z,13.43
2022-11-10T16:41:24.981Z,17.97
2022-11-10T16:43:53.225Z,15.87
2022-11-10T16:46:24.027Z,23.60
2022-11-10T16:48:54.487Z,17.17
2022-11-10T16:51:31.017Z,21.10
2022-11-10T16:53:59.874Z,19.00
2022-11-10T16:56:28.341Z,20.83
2022-11-10T16:58:56.496Z,20.30
2022-11-10T17:01:27.848Z,21.37
2022-11-10T17:03:58.573Z,28.50
2022-11-10T17:06:30.562Z,19.20
2022-11-10T17:09:04.204Z,18.83
2022-11-10T17:11:32.370Z,17.53
2022-11-10T17:14:00.726Z,16.07
2022-11-10T17:16:32.867Z,19.53
2022-11-10T17:19:02.855Z,23.70
2022-11-10T17:21:35.851Z,18.97
2022-11-10T17:24:04.886Z,16.50
2022-11-10T17:26:33.049Z,21.73
2022-11-10T17:29:01.208Z,18.07
2022-11-10T17:31:29.506Z,22.57
2022-11-10T17:33:57.883Z,24.40
2022-11-10T17:36:26.287Z,13.43
2022-11-10T17:38:56.043Z,15.93
2022-11-10T17:41:24.386Z,19.87
2022-11-10T17:43:52.670Z,21.53
2022-11-10T17:46:21.036Z,14.10
2022-11-10T17:48:50.595Z,15.73
2022-11-10T17:51:20.837Z,16.70
2022-11-10T17:53:50.797Z,18.47
2022-11-10T17:56:23.643Z,21.13
2022-11-10T17:58:53.769Z,17.97
2022-11-10T18:01:23.070Z,19.93
2022-11-10T18:03:57.578Z,25.67
2022-11-10T18:06:25.713Z,13.90
2022-11-10T18:08:53.960Z,20.83
2022-11-10T18:11:26.678Z,25.10
2022-11-10T18:13:54.961Z,21.23
2022-11-10T18:16:23.683Z,24.93
2022-11-10T18:18:52.013Z,22.07
2022-11-10T18:21:21.950Z,22.53
2022-11-10T18:23:50.008Z,18.73
2022-11-10T18:26:18.269Z,23.20
2022-11-10T18:28:50.122Z,20.53
2022-11-10T18:31:19.243Z,19.33
2022-11-10T18:33:51.161Z,26.77
2022-11-10T18:36:19.383Z,19.83
2022-11-10T18:38:47.567Z,17.90
2022-11-10T18:41:33.451Z,23.00
2022-11-10T18:44:03.066Z,23.87
2022-11-10T18:46:31.287Z,33.13
2022-11-10T18:48:59.530Z,25.40
2022-11-10T18:51:27.753Z,21.13
2022-11-10T18:53:56.328Z,34.43
2022-11-10T18:56:24.402Z,25.57
2022-11-10T18:58:56.871Z,28.00
2022-11-10T19:01:27.235Z,17.80
2022-11-10T19:03:56.175Z,26.17
2022-11-10T19:06:24.696Z,22.87
2022-11-10T19:08:52.926Z,23.97
2022-11-10T19:11:21.524Z,32.90
2022-11-10T19:13:50.170Z,23.53
2022-11-10T19:16:20.165Z,16.00
2022-11-10T19:18:49.979Z,19.10
2022-11-10T19:21:20.720Z,23.93
2022-11-10T19:23:49.390Z,18.63
2022-11-10T19:26:22.557Z,26.60
2022-11-10T19:28:53.490Z,23.33
2022-11-10T19:31:23.124Z,17.47
2022-11-10T19:33:54.887Z,23.67
2022-11-10T19:36:24.558Z,22.33
2022-11-10T19:38:54.474Z,31.43
2022-11-10T19:41:24.124Z,23.43
2022-11-10T19:43:52.587Z,27.77
2022-11-10T19:46:23.424Z,21.07
2022-11-10T19:48:53.059Z,31.27
2022-11-10T19:51:22.948Z,29.17
2022-11-10T19:53:58.562Z,28.17
2022-11-10T19:56:31.490Z,25.93
2022-11-10T19:59:00.377Z,28.30
2022-11-10T20:01:29.176Z,28.80
2022-11-10T20:04:01.128Z,24.00
2022-11-10T20:06:30.352Z,25.23
2022-11-10T20:08:58.455Z,25.87
2022-11-10T20:11:27.815Z,22.33
2022-11-10T20:13:57.509Z,21.57
2022-11-10T20:16:25.585Z,31.83
2022-11-10T20:18:53.910Z,28.03
2022-11-10T20:21:24.192Z,28.37
2022-11-10T20:23:56.686Z,24.60
2022-11-10T20:26:26.116Z,29.47
2022-11-10T20:28:54.257Z,28.73
2022-11-10T20:31:24.614Z,28.47
2022-11-10T20:33:54.637Z,30.90
2022-11-10T20:36:26.133Z,19.23
2022-11-10T20:38:58.589Z,21.67
2022-11-10T20:41:28.677Z,22.57
2022-11-10T20:43:57.062Z,28.67
2022-11-10T20:46:54.106Z,25.60
2022-11-10T20:49:13.735Z,29.13
2022-11-10T20:51:43.758Z,20.13
2022-11-10T20:54:11.951Z,25.47
2022-11-10T20:56:40.285Z,32.33
2022-11-10T20:59:08.484Z,23.87
2022-11-10T21:01:37.931Z,35.53
2022-11-10T21:04:06.925Z,26.90
2022-11-10T21:06:35.154Z,29.60
2022-11-10T21:09:05.786Z,20.50
2022-11-10T21:11:51.705Z,24.07
2022-11-10T21:14:20.361Z,20.40
2022-11-10T21:16:48.552Z,26.30
2022-11-10T21:19:16.803Z,32.30
2022-11-10T21:21:44.804Z,25.20
2022-11-10T21:24:14.359Z,29.03
2022-11-10T21:26:42.484Z,29.07
2022-11-10T21:29:11.695Z,25.17
2022-11-10T21:31:39.974Z,23.77
2022-11-10T21:34:08.396Z,26.50
2022-11-10T21:36:36.682Z,29.90
2022-11-10T21:39:05.003Z,35.93
2022-11-10T21:41:34.681Z,27.87
2022-11-10T21:44:02.757Z,28.53
2022-11-10T21:46:31.044Z,25.17
2022-11-10T21:49:02.011Z,26.17
2022-11-10T21:51:32.780Z,25.07
2022-11-10T21:54:01.043Z,27.83
2022-11-10T21:56:29.169Z,27.97
2022-11-10T21:58:59.085Z,32.73
2022-11-10T22:01:27.684Z,28.57
2022-11-10T22:03:55.861Z,33.43
2022-11-10T22:06:44.190Z,31.20
2022-11-10T22:09:12.369Z,28.67
2022-11-10T22:11:58.024Z,33.53
2022-11-10T22:14:45.164Z,24.20
2022-11-10T22:17:34.741Z,32.50
2022-11-10T22:20:02.890Z,33.60
2022-11-10T22:22:31.096Z,38.60
2022-11-10T22:24:59.227Z,28.57
2022-11-10T22:27:27.301Z,28.20
2022-11-10T22:29:56.893Z,32.83
2022-11-10T22:32:25.004Z,35.37
2022-11-10T22:34:53.181Z,23.30
2022-11-10T22:37:22.461Z,30.30
2022-11-10T22:40:08.252Z,35.77
2022-11-10T22:42:53.923Z,33.67
2022-11-10T22:45:23.432Z,28.63
2022-11-10T22:48:09.247Z,27.77
2022-11-10T22:50:37.319Z,23.63
2022-11-10T22:53:05.736Z,24.13
2022-11-10T22:55:33.845Z,26.30
2022-11-10T22:58:02.259Z,25.77
2022-11-10T23:00:31.905Z,28.57
2022-11-10T23:02:59.944Z,32.17
2022-11-10T23:05:28.151Z,28.53
2022-11-10T23:07:56.619Z,23.57
2022-11-10T23:10:24.807Z,26.10
2022-11-10T23:12:55.020Z,22.20
2022-11-10T23:15:23.473Z,26.03
2022-11-10T23:17:52.928Z,33.23
2022-11-10T23:20:21.076Z,26.93
2022-11-10T23:22:49.260Z,29.83
2022-11-10T23:25:17.355Z,25.93
2022-11-10T23:27:45.559Z,28.20
2022-11-10T23:30:14.071Z,31.93
2022-11-10T23:32:42.078Z,32.90
2022-11-10T23:35:11.745Z,24.23
2022-11-10T23:37:39.984Z,19.27
2022-11-10T23:40:09.203Z,26.87
2022-11-10T23:42:37.314Z,28.47
2022-11-10T23:45:09.401Z,25.13
2022-11-10T23:47:37.429Z,23.70
2022-11-10T23:50:06.234Z,35.63
2022-11-10T23:52:35.747Z,30.43
2022-11-10T23:55:03.840Z,27.70
2022-11-10T23:57:32.223Z,31.70
